Ana Sayfa
METAR-TAF:

METAR-TAF

Havaalanları :

Duşanbe, Tacikistan

Enlem: 38-33N, Boylam: 068-47E, yükseklik: 803 m

Güncel hava durumu gözlemi

Rapor saat 21:30 UTC de 20 dakika önce yapıldı.
Rüzgar değişken yönden 2 kt
Sıcaklık 26°C
Nem 37%
Basınç 1000 hPa
Görüş mesafesi 10 km veya daha fazla

METAR: UTDD 222130Z VRB01MPS 9999 NSC 26/10 Q1000 R09/D NOSIG RMK QFE683/0911

Saat: 02:50 (21:50 UTC)

Tahmin

Rapor saat 21:00 UTC de 50 dakika önce yapıldı.
Ayın 22'si saat 22 UTC'den ayın 23'si saat 10 UTC'ye kadar geçerli Tahmin
Rüzgar değişken yönden 4 kt
Görüş mesafesi: 6000 m
6600 ft yükseklikte az bulutlu
15000 ft yükseklikte parçalı bulutlu

TAF: UTDD 222100Z 2222/2310 VRB02MPS 6000 FEW066 SCT150

4.000'den fazla havaalanı için hava durumu gözlemleri ve tahminleri (METAR ve TAF raporları).

Kullanılabilir istasyonlar harita üzerinde sarı ve kırmızı noktalarla gösterilir.

İstasyonun adını görmek için fareyi noktanın üzerinde gezdirin.

Sonrasında hava gözlem ve tahminlerini görmek için tıklayın.

Haritayı değiştirmek için: yaklaştırmak için siyah artı işaretli yeşil düğmeye ve uzaklaştırmak için de eksi işaretli düğmeye hızla tıklayın; bitişik haritalar için yeşil okları kullanın.


METAR-TAF: